sensor_id;sensor_type;location;lat;lon;timestamp;P1;durP1;ratioP1;P2;durP2;ratioP2
19255;SDS011;9762;52.490;13.410;2024-03-06T00:00:55;16.17;;;14.30;;
19255;SDS011;9762;52.490;13.410;2024-03-06T00:03:20;19.50;;;14.77;;
19255;SDS011;9762;52.490;13.410;2024-03-06T00:05:47;15.03;;;13.53;;
19255;SDS011;9762;52.490;13.410;2024-03-06T00:08:12;17.13;;;14.60;;
19255;SDS011;9762;52.490;13.410;2024-03-06T00:10:38;16.37;;;14.43;;
19255;SDS011;9762;52.490;13.410;2024-03-06T00:13:05;16.67;;;14.30;;
19255;SDS011;9762;52.490;13.410;2024-03-06T00:15:31;17.10;;;14.07;;
19255;SDS011;9762;52.490;13.410;2024-03-06T00:17:56;14.70;;;13.17;;
19255;SDS011;9762;52.490;13.410;2024-03-06T00:20:23;18.17;;;14.70;;
19255;SDS011;9762;52.490;13.410;2024-03-06T00:22:49;15.93;;;13.73;;
19255;SDS011;9762;52.490;13.410;2024-03-06T00:25:15;16.87;;;13.60;;
19255;SDS011;9762;52.490;13.410;2024-03-06T00:27:40;18.20;;;14.97;;
19255;SDS011;9762;52.490;13.410;2024-03-06T00:30:06;15.40;;;13.80;;
19255;SDS011;9762;52.490;13.410;2024-03-06T00:32:32;17.90;;;13.47;;
19255;SDS011;9762;52.490;13.410;2024-03-06T00:34:58;17.53;;;14.93;;
19255;SDS011;9762;52.490;13.410;2024-03-06T00:37:23;16.27;;;13.23;;
19255;SDS011;9762;52.490;13.410;2024-03-06T00:39:49;17.20;;;14.07;;
19255;SDS011;9762;52.490;13.410;2024-03-06T00:42:15;18.37;;;14.80;;
19255;SDS011;9762;52.490;13.410;2024-03-06T00:44:40;19.27;;;15.10;;
19255;SDS011;9762;52.490;13.410;2024-03-06T00:47:06;16.57;;;14.63;;
19255;SDS011;9762;52.490;13.410;2024-03-06T00:49:32;16.27;;;14.00;;
19255;SDS011;9762;52.490;13.410;2024-03-06T00:51:57;18.00;;;14.70;;
19255;SDS011;9762;52.490;13.410;2024-03-06T00:54:23;16.60;;;14.57;;
19255;SDS011;9762;52.490;13.410;2024-03-06T00:56:49;15.43;;;13.73;;
19255;SDS011;9762;52.490;13.410;2024-03-06T00:59:15;16.73;;;14.30;;
19255;SDS011;9762;52.490;13.410;2024-03-06T01:01:40;16.87;;;13.53;;
19255;SDS011;9762;52.490;13.410;2024-03-06T01:04:06;16.23;;;13.90;;
19255;SDS011;9762;52.490;13.410;2024-03-06T01:06:32;16.00;;;14.20;;
19255;SDS011;9762;52.490;13.410;2024-03-06T01:08:58;17.53;;;14.13;;
19255;SDS011;9762;52.490;13.410;2024-03-06T01:11:24;15.27;;;12.60;;
19255;SDS011;9762;52.490;13.410;2024-03-06T01:13:51;16.23;;;12.93;;
19255;SDS011;9762;52.490;13.410;2024-03-06T01:16:17;18.10;;;13.83;;
19255;SDS011;9762;52.490;13.410;2024-03-06T01:18:43;14.93;;;12.77;;
19255;SDS011;9762;52.490;13.410;2024-03-06T01:21:09;15.77;;;13.80;;
19255;SDS011;9762;52.490;13.410;2024-03-06T01:23:35;15.00;;;13.40;;
19255;SDS011;9762;52.490;13.410;2024-03-06T01:26:00;16.13;;;13.97;;
19255;SDS011;9762;52.490;13.410;2024-03-06T01:28:26;14.07;;;12.67;;
19255;SDS011;9762;52.490;13.410;2024-03-06T01:30:52;15.40;;;13.57;;
19255;SDS011;9762;52.490;13.410;2024-03-06T01:33:17;15.13;;;13.53;;
19255;SDS011;9762;52.490;13.410;2024-03-06T01:35:43;16.10;;;13.87;;
19255;SDS011;9762;52.490;13.410;2024-03-06T01:38:09;17.10;;;13.60;;
19255;SDS011;9762;52.490;13.410;2024-03-06T01:40:35;14.73;;;12.83;;
19255;SDS011;9762;52.490;13.410;2024-03-06T01:43:01;15.93;;;13.90;;
19255;SDS011;9762;52.490;13.410;2024-03-06T01:45:26;14.53;;;13.03;;
19255;SDS011;9762;52.490;13.410;2024-03-06T01:47:52;15.03;;;13.30;;
19255;SDS011;9762;52.490;13.410;2024-03-06T01:50:18;14.80;;;12.77;;
19255;SDS011;9762;52.490;13.410;2024-03-06T01:52:44;14.33;;;12.50;;
19255;SDS011;9762;52.490;13.410;2024-03-06T01:55:11;16.83;;;13.83;;
19255;SDS011;9762;52.490;13.410;2024-03-06T01:57:37;16.20;;;13.37;;
19255;SDS011;9762;52.490;13.410;2024-03-06T02:00:05;19.93;;;13.63;;
19255;SDS011;9762;52.490;13.410;2024-03-06T02:02:33;14.07;;;12.67;;
19255;SDS011;9762;52.490;13.410;2024-03-06T02:04:59;14.60;;;13.03;;
19255;SDS011;9762;52.490;13.410;2024-03-06T02:07:25;14.83;;;13.00;;
19255;SDS011;9762;52.490;13.410;2024-03-06T02:09:57;17.53;;;13.07;;
19255;SDS011;9762;52.490;13.410;2024-03-06T02:12:23;18.47;;;12.80;;
19255;SDS011;9762;52.490;13.410;2024-03-06T02:14:49;14.37;;;12.20;;
19255;SDS011;9762;52.490;13.410;2024-03-06T02:17:14;16.63;;;13.27;;
19255;SDS011;9762;52.490;13.410;2024-03-06T02:19:43;14.37;;;12.87;;
19255;SDS011;9762;52.490;13.410;2024-03-06T02:22:09;13.80;;;12.47;;
19255;SDS011;9762;52.490;13.410;2024-03-06T02:24:35;14.70;;;13.20;;
19255;SDS011;9762;52.490;13.410;2024-03-06T02:27:02;15.17;;;13.57;;
19255;SDS011;9762;52.490;13.410;2024-03-06T02:29:30;20.50;;;13.53;;
19255;SDS011;9762;52.490;13.410;2024-03-06T02:31:59;14.80;;;13.00;;
19255;SDS011;9762;52.490;13.410;2024-03-06T02:34:27;17.20;;;14.00;;
19255;SDS011;9762;52.490;13.410;2024-03-06T02:36:54;15.13;;;12.73;;
19255;SDS011;9762;52.490;13.410;2024-03-06T02:39:19;15.03;;;12.70;;
19255;SDS011;9762;52.490;13.410;2024-03-06T02:41:46;14.97;;;13.30;;
19255;SDS011;9762;52.490;13.410;2024-03-06T02:44:12;15.40;;;13.60;;
19255;SDS011;9762;52.490;13.410;2024-03-06T02:46:38;15.83;;;14.23;;
19255;SDS011;9762;52.490;13.410;2024-03-06T02:49:04;19.33;;;13.57;;
19255;SDS011;9762;52.490;13.410;2024-03-06T02:51:31;20.37;;;14.37;;
19255;SDS011;9762;52.490;13.410;2024-03-06T02:53:56;14.77;;;13.30;;
19255;SDS011;9762;52.490;13.410;2024-03-06T02:56:22;14.97;;;13.40;;
19255;SDS011;9762;52.490;13.410;2024-03-06T02:58:48;14.60;;;13.10;;
19255;SDS011;9762;52.490;13.410;2024-03-06T03:01:14;14.80;;;13.20;;
19255;SDS011;9762;52.490;13.410;2024-03-06T03:03:40;16.47;;;12.87;;
19255;SDS011;9762;52.490;13.410;2024-03-06T03:06:07;17.47;;;14.20;;
19255;SDS011;9762;52.490;13.410;2024-03-06T03:08:33;16.17;;;14.47;;
19255;SDS011;9762;52.490;13.410;2024-03-06T03:10:58;15.53;;;14.00;;
19255;SDS011;9762;52.490;13.410;2024-03-06T03:13:24;17.37;;;14.07;;
19255;SDS011;9762;52.490;13.410;2024-03-06T03:15:50;17.67;;;13.80;;
19255;SDS011;9762;52.490;13.410;2024-03-06T03:18:16;17.87;;;14.03;;
19255;SDS011;9762;52.490;13.410;2024-03-06T03:20:42;16.63;;;14.10;;
19255;SDS011;9762;52.490;13.410;2024-03-06T03:23:07;15.47;;;13.83;;
19255;SDS011;9762;52.490;13.410;2024-03-06T03:25:37;14.80;;;13.30;;
19255;SDS011;9762;52.490;13.410;2024-03-06T03:28:02;15.17;;;13.60;;
19255;SDS011;9762;52.490;13.410;2024-03-06T03:30:28;16.70;;;13.87;;
19255;SDS011;9762;52.490;13.410;2024-03-06T03:32:54;15.73;;;13.93;;
19255;SDS011;9762;52.490;13.410;2024-03-06T03:35:20;15.03;;;13.43;;
19255;SDS011;9762;52.490;13.410;2024-03-06T03:37:50;15.57;;;13.17;;
19255;SDS011;9762;52.490;13.410;2024-03-06T03:40:17;17.00;;;13.43;;
19255;SDS011;9762;52.490;13.410;2024-03-06T03:42:46;16.90;;;13.67;;
19255;SDS011;9762;52.490;13.410;2024-03-06T03:45:11;16.77;;;13.47;;
19255;SDS011;9762;52.490;13.410;2024-03-06T03:47:37;15.07;;;13.23;;
19255;SDS011;9762;52.490;13.410;2024-03-06T03:50:03;15.57;;;13.30;;
19255;SDS011;9762;52.490;13.410;2024-03-06T03:52:29;14.77;;;13.23;;
19255;SDS011;9762;52.490;13.410;2024-03-06T03:54:55;14.77;;;12.80;;
19255;SDS011;9762;52.490;13.410;2024-03-06T03:57:20;15.23;;;13.63;;
19255;SDS011;9762;52.490;13.410;2024-03-06T03:59:46;15.47;;;13.37;;
19255;SDS011;9762;52.490;13.410;2024-03-06T04:02:11;16.10;;;14.40;;
19255;SDS011;9762;52.490;13.410;2024-03-06T04:04:37;15.60;;;13.93;;
19255;SDS011;9762;52.490;13.410;2024-03-06T04:07:03;16.83;;;13.87;;
19255;SDS011;9762;52.490;13.410;2024-03-06T04:09:30;15.47;;;13.50;;
19255;SDS011;9762;52.490;13.410;2024-03-06T04:12:00;18.40;;;13.40;;
19255;SDS011;9762;52.490;13.410;2024-03-06T04:14:26;16.70;;;14.07;;
19255;SDS011;9762;52.490;13.410;2024-03-06T04:16:51;15.87;;;14.00;;
19255;SDS011;9762;52.490;13.410;2024-03-06T04:19:17;16.53;;;13.47;;
19255;SDS011;9762;52.490;13.410;2024-03-06T04:21:43;16.30;;;14.40;;
19255;SDS011;9762;52.490;13.410;2024-03-06T04:24:09;16.87;;;15.17;;
19255;SDS011;9762;52.490;13.410;2024-03-06T04:26:35;16.40;;;13.77;;
19255;SDS011;9762;52.490;13.410;2024-03-06T04:29:01;19.30;;;14.90;;
19255;SDS011;9762;52.490;13.410;2024-03-06T04:31:27;17.53;;;13.37;;
19255;SDS011;9762;52.490;13.410;2024-03-06T04:33:53;15.97;;;14.33;;
19255;SDS011;9762;52.490;13.410;2024-03-06T04:36:19;16.70;;;14.60;;
19255;SDS011;9762;52.490;13.410;2024-03-06T04:38:44;18.13;;;14.17;;
19255;SDS011;9762;52.490;13.410;2024-03-06T04:41:10;16.27;;;14.60;;
19255;SDS011;9762;52.490;13.410;2024-03-06T04:43:36;16.20;;;14.50;;
19255;SDS011;9762;52.490;13.410;2024-03-06T04:46:02;17.57;;;14.47;;
19255;SDS011;9762;52.490;13.410;2024-03-06T04:48:29;16.20;;;14.50;;
19255;SDS011;9762;52.490;13.410;2024-03-06T04:50:54;15.30;;;13.70;;
19255;SDS011;9762;52.490;13.410;2024-03-06T04:53:20;17.67;;;13.60;;
19255;SDS011;9762;52.490;13.410;2024-03-06T04:55:46;19.90;;;14.20;;
19255;SDS011;9762;52.490;13.410;2024-03-06T04:58:12;14.77;;;13.27;;
19255;SDS011;9762;52.490;13.410;2024-03-06T05:00:38;18.13;;;14.10;;
19255;SDS011;9762;52.490;13.410;2024-03-06T05:03:03;18.77;;;15.13;;
19255;SDS011;9762;52.490;13.410;2024-03-06T05:05:29;17.57;;;14.03;;
19255;SDS011;9762;52.490;13.410;2024-03-06T05:07:55;16.17;;;14.43;;
19255;SDS011;9762;52.490;13.410;2024-03-06T05:10:21;15.77;;;14.07;;
19255;SDS011;9762;52.490;13.410;2024-03-06T05:12:47;16.50;;;14.80;;
19255;SDS011;9762;52.490;13.410;2024-03-06T05:15:14;15.17;;;13.53;;
19255;SDS011;9762;52.490;13.410;2024-03-06T05:17:40;18.00;;;14.40;;
19255;SDS011;9762;52.490;13.410;2024-03-06T05:20:06;17.80;;;15.10;;
19255;SDS011;9762;52.490;13.410;2024-03-06T05:22:32;18.20;;;14.60;;
19255;SDS011;9762;52.490;13.410;2024-03-06T05:24:58;14.87;;;13.20;;
19255;SDS011;9762;52.490;13.410;2024-03-06T05:27:24;18.60;;;14.93;;
19255;SDS011;9762;52.490;13.410;2024-03-06T05:29:51;15.13;;;13.53;;
19255;SDS011;9762;52.490;13.410;2024-03-06T05:32:17;14.67;;;13.20;;
19255;SDS011;9762;52.490;13.410;2024-03-06T05:34:42;14.80;;;13.20;;
19255;SDS011;9762;52.490;13.410;2024-03-06T05:37:09;17.83;;;13.97;;
19255;SDS011;9762;52.490;13.410;2024-03-06T05:39:35;15.80;;;14.10;;
19255;SDS011;9762;52.490;13.410;2024-03-06T05:42:02;18.97;;;13.80;;
19255;SDS011;9762;52.490;13.410;2024-03-06T05:44:28;17.77;;;13.83;;
19255;SDS011;9762;52.490;13.410;2024-03-06T05:46:55;22.33;;;13.60;;
19255;SDS011;9762;52.490;13.410;2024-03-06T05:49:22;16.17;;;14.20;;
19255;SDS011;9762;52.490;13.410;2024-03-06T05:51:47;16.13;;;14.43;;
19255;SDS011;9762;52.490;13.410;2024-03-06T05:54:13;18.17;;;14.17;;
19255;SDS011;9762;52.490;13.410;2024-03-06T05:56:39;16.47;;;14.60;;
19255;SDS011;9762;52.490;13.410;2024-03-06T05:59:04;21.80;;;15.47;;
19255;SDS011;9762;52.490;13.410;2024-03-06T06:01:33;16.57;;;14.00;;
19255;SDS011;9762;52.490;13.410;2024-03-06T06:04:00;17.97;;;15.57;;
19255;SDS011;9762;52.490;13.410;2024-03-06T06:06:26;22.00;;;16.10;;
19255;SDS011;9762;52.490;13.410;2024-03-06T06:08:52;19.60;;;16.47;;
19255;SDS011;9762;52.490;13.410;2024-03-06T06:11:18;19.53;;;15.93;;
19255;SDS011;9762;52.490;13.410;2024-03-06T06:13:44;23.27;;;17.27;;
19255;SDS011;9762;52.490;13.410;2024-03-06T06:16:10;21.27;;;17.23;;
19255;SDS011;9762;52.490;13.410;2024-03-06T06:18:35;23.00;;;15.87;;
19255;SDS011;9762;52.490;13.410;2024-03-06T06:21:01;17.67;;;15.80;;
19255;SDS011;9762;52.490;13.410;2024-03-06T06:23:27;19.13;;;14.87;;
19255;SDS011;9762;52.490;13.410;2024-03-06T06:25:53;22.63;;;15.67;;
19255;SDS011;9762;52.490;13.410;2024-03-06T06:28:18;22.20;;;15.73;;
19255;SDS011;9762;52.490;13.410;2024-03-06T06:30:44;19.00;;;16.13;;
19255;SDS011;9762;52.490;13.410;2024-03-06T06:33:09;19.90;;;17.13;;
19255;SDS011;9762;52.490;13.410;2024-03-06T06:35:35;21.33;;;15.97;;
19255;SDS011;9762;52.490;13.410;2024-03-06T06:38:01;18.13;;;16.23;;
19255;SDS011;9762;52.490;13.410;2024-03-06T06:40:27;18.27;;;15.43;;
19255;SDS011;9762;52.490;13.410;2024-03-06T06:42:53;20.23;;;16.97;;
19255;SDS011;9762;52.490;13.410;2024-03-06T06:45:19;21.50;;;17.57;;
19255;SDS011;9762;52.490;13.410;2024-03-06T06:47:46;18.20;;;16.00;;
19255;SDS011;9762;52.490;13.410;2024-03-06T06:50:13;19.90;;;17.47;;
19255;SDS011;9762;52.490;13.410;2024-03-06T06:52:38;22.30;;;16.90;;
19255;SDS011;9762;52.490;13.410;2024-03-06T06:55:04;23.60;;;17.33;;
19255;SDS011;9762;52.490;13.410;2024-03-06T06:57:31;26.20;;;16.90;;
19255;SDS011;9762;52.490;13.410;2024-03-06T06:59:58;22.93;;;17.60;;
19255;SDS011;9762;52.490;13.410;2024-03-06T07:02:24;18.13;;;16.20;;
19255;SDS011;9762;52.490;13.410;2024-03-06T07:04:50;24.20;;;16.23;;
19255;SDS011;9762;52.490;13.410;2024-03-06T07:07:16;23.07;;;16.07;;
19255;SDS011;9762;52.490;13.410;2024-03-06T07:09:42;23.33;;;17.50;;
19255;SDS011;9762;52.490;13.410;2024-03-06T07:12:08;20.17;;;15.53;;
19255;SDS011;9762;52.490;13.410;2024-03-06T07:14:34;19.97;;;15.63;;
19255;SDS011;9762;52.490;13.410;2024-03-06T07:17:00;18.07;;;15.37;;
19255;SDS011;9762;52.490;13.410;2024-03-06T07:19:26;18.87;;;15.47;;
19255;SDS011;9762;52.490;13.410;2024-03-06T07:21:52;16.50;;;14.07;;
19255;SDS011;9762;52.490;13.410;2024-03-06T07:24:18;16.80;;;15.07;;
19255;SDS011;9762;52.490;13.410;2024-03-06T07:26:44;15.47;;;13.90;;
19255;SDS011;9762;52.490;13.410;2024-03-06T07:29:10;19.67;;;14.67;;
19255;SDS011;9762;52.490;13.410;2024-03-06T07:31:40;16.20;;;14.37;;
19255;SDS011;9762;52.490;13.410;2024-03-06T07:34:07;17.37;;;13.97;;
19255;SDS011;9762;52.490;13.410;2024-03-06T07:36:33;16.27;;;14.43;;
19255;SDS011;9762;52.490;13.410;2024-03-06T07:39:00;21.23;;;14.40;;
19255;SDS011;9762;52.490;13.410;2024-03-06T07:41:26;14.83;;;13.17;;
19255;SDS011;9762;52.490;13.410;2024-03-06T07:43:52;16.03;;;13.57;;
19255;SDS011;9762;52.490;13.410;2024-03-06T07:46:17;15.63;;;12.83;;
19255;SDS011;9762;52.490;13.410;2024-03-06T07:48:43;17.43;;;13.33;;
19255;SDS011;9762;52.490;13.410;2024-03-06T07:51:09;21.73;;;12.47;;
19255;SDS011;9762;52.490;13.410;2024-03-06T07:53:35;17.33;;;13.60;;
19255;SDS011;9762;52.490;13.410;2024-03-06T07:56:01;17.07;;;11.83;;
19255;SDS011;9762;52.490;13.410;2024-03-06T07:58:28;18.67;;;12.67;;
19255;SDS011;9762;52.490;13.410;2024-03-06T08:00:53;18.77;;;13.97;;
19255;SDS011;9762;52.490;13.410;2024-03-06T08:03:21;18.67;;;13.20;;
19255;SDS011;9762;52.490;13.410;2024-03-06T08:05:49;15.90;;;13.03;;
19255;SDS011;9762;52.490;13.410;2024-03-06T08:08:16;14.23;;;12.73;;
19255;SDS011;9762;52.490;13.410;2024-03-06T08:10:42;14.27;;;12.17;;
19255;SDS011;9762;52.490;13.410;2024-03-06T08:13:07;13.73;;;12.27;;
19255;SDS011;9762;52.490;13.410;2024-03-06T08:15:33;18.27;;;11.43;;
19255;SDS011;9762;52.490;13.410;2024-03-06T08:17:58;12.90;;;11.43;;
19255;SDS011;9762;52.490;13.410;2024-03-06T08:20:24;13.27;;;10.27;;
19255;SDS011;9762;52.490;13.410;2024-03-06T08:22:50;12.07;;;10.83;;
19255;SDS011;9762;52.490;13.410;2024-03-06T08:25:15;11.90;;;10.73;;
19255;SDS011;9762;52.490;13.410;2024-03-06T08:27:41;12.10;;;10.90;;
19255;SDS011;9762;52.490;13.410;2024-03-06T08:30:07;11.73;;;10.63;;
19255;SDS011;9762;52.490;13.410;2024-03-06T08:32:34;10.80;;;9.77;;
19255;SDS011;9762;52.490;13.410;2024-03-06T08:37:30;16.73;;;10.30;;
19255;SDS011;9762;52.490;13.410;2024-03-06T08:39:57;10.63;;;9.53;;
19255;SDS011;9762;52.490;13.410;2024-03-06T08:42:24;10.57;;;9.23;;
19255;SDS011;9762;52.490;13.410;2024-03-06T08:44:49;11.43;;;10.17;;
19255;SDS011;9762;52.490;13.410;2024-03-06T08:47:15;13.70;;;10.43;;
19255;SDS011;9762;52.490;13.410;2024-03-06T08:49:41;12.27;;;9.73;;
19255;SDS011;9762;52.490;13.410;2024-03-06T08:52:07;11.90;;;10.23;;
19255;SDS011;9762;52.490;13.410;2024-03-06T08:54:34;11.63;;;10.40;;
19255;SDS011;9762;52.490;13.410;2024-03-06T08:57:00;13.73;;;10.33;;
19255;SDS011;9762;52.490;13.410;2024-03-06T08:59:28;12.33;;;9.30;;
19255;SDS011;9762;52.490;13.410;2024-03-06T09:01:54;10.77;;;9.63;;
19255;SDS011;9762;52.490;13.410;2024-03-06T09:04:21;11.83;;;9.77;;
19255;SDS011;9762;52.490;13.410;2024-03-06T09:06:47;10.03;;;8.93;;
19255;SDS011;9762;52.490;13.410;2024-03-06T09:09:13;10.03;;;9.13;;
19255;SDS011;9762;52.490;13.410;2024-03-06T09:11:42;9.43;;;8.47;;
19255;SDS011;9762;52.490;13.410;2024-03-06T09:14:08;9.10;;;8.20;;
19255;SDS011;9762;52.490;13.410;2024-03-06T09:16:35;9.60;;;8.70;;
19255;SDS011;9762;52.490;13.410;2024-03-06T09:19:01;8.83;;;8.03;;
19255;SDS011;9762;52.490;13.410;2024-03-06T09:21:27;10.43;;;8.30;;
19255;SDS011;9762;52.490;13.410;2024-03-06T09:23:53;9.47;;;8.23;;
19255;SDS011;9762;52.490;13.410;2024-03-06T09:26:19;9.87;;;8.87;;
19255;SDS011;9762;52.490;13.410;2024-03-06T09:28:48;8.77;;;8.00;;
19255;SDS011;9762;52.490;13.410;2024-03-06T09:31:14;8.30;;;7.67;;
19255;SDS011;9762;52.490;13.410;2024-03-06T09:33:40;8.13;;;7.43;;
19255;SDS011;9762;52.490;13.410;2024-03-06T09:36:06;8.63;;;7.77;;
19255;SDS011;9762;52.490;13.410;2024-03-06T09:38:35;8.10;;;7.30;;
19255;SDS011;9762;52.490;13.410;2024-03-06T09:41:02;6.80;;;6.30;;
19255;SDS011;9762;52.490;13.410;2024-03-06T09:43:28;8.97;;;7.47;;
19255;SDS011;9762;52.490;13.410;2024-03-06T09:45:54;7.13;;;6.60;;
19255;SDS011;9762;52.490;13.410;2024-03-06T09:48:21;7.13;;;6.43;;
19255;SDS011;9762;52.490;13.410;2024-03-06T09:50:48;7.87;;;7.10;;
19255;SDS011;9762;52.490;13.410;2024-03-06T09:53:17;7.77;;;7.07;;
19255;SDS011;9762;52.490;13.410;2024-03-06T09:55:45;6.70;;;6.20;;
19255;SDS011;9762;52.490;13.410;2024-03-06T09:58:11;8.30;;;7.37;;
19255;SDS011;9762;52.490;13.410;2024-03-06T10:00:37;7.73;;;6.97;;
19255;SDS011;9762;52.490;13.410;2024-03-06T10:03:03;7.80;;;7.10;;
19255;SDS011;9762;52.490;13.410;2024-03-06T10:05:33;8.37;;;7.47;;
19255;SDS011;9762;52.490;13.410;2024-03-06T10:08:03;8.53;;;7.63;;
19255;SDS011;9762;52.490;13.410;2024-03-06T10:10:29;11.03;;;7.30;;
19255;SDS011;9762;52.490;13.410;2024-03-06T10:12:55;8.73;;;7.47;;
19255;SDS011;9762;52.490;13.410;2024-03-06T10:15:25;9.77;;;7.10;;
19255;SDS011;9762;52.490;13.410;2024-03-06T10:18:09;7.00;;;6.40;;
19255;SDS011;9762;52.490;13.410;2024-03-06T10:20:36;11.17;;;6.97;;
19255;SDS011;9762;52.490;13.410;2024-03-06T10:23:02;7.60;;;6.90;;
19255;SDS011;9762;52.490;13.410;2024-03-06T10:25:28;8.47;;;6.83;;
19255;SDS011;9762;52.490;13.410;2024-03-06T10:30:36;6.87;;;6.17;;
19255;SDS011;9762;52.490;13.410;2024-03-06T10:33:09;7.77;;;7.07;;
19255;SDS011;9762;52.490;13.410;2024-03-06T10:35:35;7.63;;;6.93;;
19255;SDS011;9762;52.490;13.410;2024-03-06T10:38:05;7.47;;;6.87;;
19255;SDS011;9762;52.490;13.410;2024-03-06T10:40:32;8.23;;;6.53;;
19255;SDS011;9762;52.490;13.410;2024-03-06T10:43:03;8.10;;;7.40;;
19255;SDS011;9762;52.490;13.410;2024-03-06T10:45:48;8.30;;;7.30;;
19255;SDS011;9762;52.490;13.410;2024-03-06T10:48:16;7.87;;;7.10;;
19255;SDS011;9762;52.490;13.410;2024-03-06T10:50:44;7.60;;;6.93;;
19255;SDS011;9762;52.490;13.410;2024-03-06T10:53:15;8.17;;;6.63;;
19255;SDS011;9762;52.490;13.410;2024-03-06T10:55:43;7.87;;;7.17;;
19255;SDS011;9762;52.490;13.410;2024-03-06T10:58:09;7.87;;;6.80;;
19255;SDS011;9762;52.490;13.410;2024-03-06T11:00:39;7.53;;;6.83;;
19255;SDS011;9762;52.490;13.410;2024-03-06T11:03:06;9.00;;;6.50;;
19255;SDS011;9762;52.490;13.410;2024-03-06T11:05:37;7.60;;;6.83;;
19255;SDS011;9762;52.490;13.410;2024-03-06T11:08:07;7.97;;;6.73;;
19255;SDS011;9762;52.490;13.410;2024-03-06T11:10:33;9.30;;;8.47;;
19255;SDS011;9762;52.490;13.410;2024-03-06T11:13:00;9.90;;;7.97;;
19255;SDS011;9762;52.490;13.410;2024-03-06T11:15:28;8.50;;;7.80;;
19255;SDS011;9762;52.490;13.410;2024-03-06T11:17:54;8.07;;;7.27;;
19255;SDS011;9762;52.490;13.410;2024-03-06T11:20:22;8.80;;;8.10;;
19255;SDS011;9762;52.490;13.410;2024-03-06T11:28:23;8.90;;;7.13;;
19255;SDS011;9762;52.490;13.410;2024-03-06T11:36:21;8.07;;;7.30;;
19255;SDS011;9762;52.490;13.410;2024-03-06T11:41:31;7.47;;;6.93;;
19255;SDS011;9762;52.490;13.410;2024-03-06T11:44:05;9.23;;;8.30;;
19255;SDS011;9762;52.490;13.410;2024-03-06T11:49:34;9.00;;;8.30;;
19255;SDS011;9762;52.490;13.410;2024-03-06T11:52:05;9.33;;;8.53;;
19255;SDS011;9762;52.490;13.410;2024-03-06T11:54:35;8.63;;;8.03;;
19255;SDS011;9762;52.490;13.410;2024-03-06T11:57:02;8.40;;;7.83;;
19255;SDS011;9762;52.490;13.410;2024-03-06T11:59:30;9.37;;;8.57;;
19255;SDS011;9762;52.490;13.410;2024-03-06T12:02:01;10.13;;;8.30;;
19255;SDS011;9762;52.490;13.410;2024-03-06T12:04:33;10.90;;;9.77;;
19255;SDS011;9762;52.490;13.410;2024-03-06T12:07:02;11.10;;;10.07;;
19255;SDS011;9762;52.490;13.410;2024-03-06T12:09:30;11.63;;;10.43;;
19255;SDS011;9762;52.490;13.410;2024-03-06T12:11:59;11.17;;;10.33;;
19255;SDS011;9762;52.490;13.410;2024-03-06T12:14:25;11.77;;;10.63;;
19255;SDS011;9762;52.490;13.410;2024-03-06T12:19:27;12.97;;;11.97;;
19255;SDS011;9762;52.490;13.410;2024-03-06T12:21:53;13.03;;;12.00;;
19255;SDS011;9762;52.490;13.410;2024-03-06T12:24:19;13.17;;;11.93;;
19255;SDS011;9762;52.490;13.410;2024-03-06T12:26:45;12.73;;;11.53;;
19255;SDS011;9762;52.490;13.410;2024-03-06T12:29:17;11.80;;;10.80;;
19255;SDS011;9762;52.490;13.410;2024-03-06T12:31:46;11.40;;;10.60;;
19255;SDS011;9762;52.490;13.410;2024-03-06T12:34:15;10.63;;;9.73;;
19255;SDS011;9762;52.490;13.410;2024-03-06T12:36:44;10.87;;;9.97;;
19255;SDS011;9762;52.490;13.410;2024-03-06T12:39:10;10.13;;;9.33;;
19255;SDS011;9762;52.490;13.410;2024-03-06T12:41:43;9.97;;;9.17;;
19255;SDS011;9762;52.490;13.410;2024-03-06T12:44:08;9.20;;;8.30;;
19255;SDS011;9762;52.490;13.410;2024-03-06T12:46:34;9.37;;;8.57;;
19255;SDS011;9762;52.490;13.410;2024-03-06T12:49:00;9.13;;;8.03;;
19255;SDS011;9762;52.490;13.410;2024-03-06T12:51:26;8.73;;;8.00;;
19255;SDS011;9762;52.490;13.410;2024-03-06T12:53:52;8.27;;;7.47;;
19255;SDS011;9762;52.490;13.410;2024-03-06T12:56:18;8.47;;;7.87;;
19255;SDS011;9762;52.490;13.410;2024-03-06T12:58:44;8.83;;;8.03;;
19255;SDS011;9762;52.490;13.410;2024-03-06T13:01:10;9.57;;;8.77;;
19255;SDS011;9762;52.490;13.410;2024-03-06T13:03:36;8.53;;;7.73;;
19255;SDS011;9762;52.490;13.410;2024-03-06T13:06:03;9.20;;;8.37;;
19255;SDS011;9762;52.490;13.410;2024-03-06T13:08:29;8.97;;;8.27;;
19255;SDS011;9762;52.490;13.410;2024-03-06T13:10:55;8.53;;;7.83;;
19255;SDS011;9762;52.490;13.410;2024-03-06T13:13:21;9.33;;;8.53;;
19255;SDS011;9762;52.490;13.410;2024-03-06T13:15:49;10.10;;;8.63;;
19255;SDS011;9762;52.490;13.410;2024-03-06T13:18:15;12.23;;;8.87;;
19255;SDS011;9762;52.490;13.410;2024-03-06T13:20:41;10.43;;;9.43;;
19255;SDS011;9762;52.490;13.410;2024-03-06T13:23:07;10.83;;;9.17;;
19255;SDS011;9762;52.490;13.410;2024-03-06T13:25:33;11.53;;;10.47;;
19255;SDS011;9762;52.490;13.410;2024-03-06T13:27:58;17.80;;;16.00;;
19255;SDS011;9762;52.490;13.410;2024-03-06T13:30:24;18.37;;;14.60;;
19255;SDS011;9762;52.490;13.410;2024-03-06T13:32:51;15.60;;;13.87;;
19255;SDS011;9762;52.490;13.410;2024-03-06T13:35:16;14.67;;;12.10;;
19255;SDS011;9762;52.490;13.410;2024-03-06T13:37:42;14.77;;;12.73;;
19255;SDS011;9762;52.490;13.410;2024-03-06T13:40:09;16.13;;;13.00;;
19255;SDS011;9762;52.490;13.410;2024-03-06T13:42:38;14.50;;;11.80;;
19255;SDS011;9762;52.490;13.410;2024-03-06T13:45:04;15.10;;;12.73;;
19255;SDS011;9762;52.490;13.410;2024-03-06T13:47:30;17.93;;;13.37;;
19255;SDS011;9762;52.490;13.410;2024-03-06T13:49:56;17.40;;;13.93;;
19255;SDS011;9762;52.490;13.410;2024-03-06T13:52:21;19.43;;;13.83;;
19255;SDS011;9762;52.490;13.410;2024-03-06T13:54:48;15.83;;;13.20;;
19255;SDS011;9762;52.490;13.410;2024-03-06T13:57:15;19.07;;;15.40;;
19255;SDS011;9762;52.490;13.410;2024-03-06T13:59:41;22.10;;;15.97;;
19255;SDS011;9762;52.490;13.410;2024-03-06T14:02:07;27.00;;;17.87;;
19255;SDS011;9762;52.490;13.410;2024-03-06T14:04:33;19.77;;;17.20;;
19255;SDS011;9762;52.490;13.410;2024-03-06T14:06:59;21.10;;;16.30;;
19255;SDS011;9762;52.490;13.410;2024-03-06T14:09:25;15.00;;;12.90;;
19255;SDS011;9762;52.490;13.410;2024-03-06T14:11:52;15.47;;;13.20;;
19255;SDS011;9762;52.490;13.410;2024-03-06T14:14:18;25.50;;;14.20;;
19255;SDS011;9762;52.490;13.410;2024-03-06T14:16:44;15.40;;;13.63;;
19255;SDS011;9762;52.490;13.410;2024-03-06T14:19:10;15.63;;;12.77;;
19255;SDS011;9762;52.490;13.410;2024-03-06T14:21:36;11.53;;;10.43;;
19255;SDS011;9762;52.490;13.410;2024-03-06T14:24:03;12.50;;;11.20;;
19255;SDS011;9762;52.490;13.410;2024-03-06T14:26:31;10.93;;;9.70;;
19255;SDS011;9762;52.490;13.410;2024-03-06T14:28:58;11.10;;;9.97;;
19255;SDS011;9762;52.490;13.410;2024-03-06T14:31:24;13.33;;;11.20;;
19255;SDS011;9762;52.490;13.410;2024-03-06T14:33:50;12.53;;;11.43;;
19255;SDS011;9762;52.490;13.410;2024-03-06T14:36:16;23.23;;;12.77;;
19255;SDS011;9762;52.490;13.410;2024-03-06T14:38:42;18.50;;;14.17;;
19255;SDS011;9762;52.490;13.410;2024-03-06T14:41:09;22.87;;;16.07;;
19255;SDS011;9762;52.490;13.410;2024-03-06T14:43:35;21.27;;;15.07;;
19255;SDS011;9762;52.490;13.410;2024-03-06T14:46:03;22.60;;;15.20;;
19255;SDS011;9762;52.490;13.410;2024-03-06T14:48:30;19.47;;;15.10;;